createdAt,value
2016-11-19T00:00:44.094Z,5.01
2016-11-19T00:01:44.064Z,5.27
2016-11-19T00:02:44.107Z,5.13
2016-11-19T00:03:44.085Z,5.12
2016-11-19T00:04:44.058Z,5.02
2016-11-19T00:05:44.060Z,5.25
2016-11-19T00:06:44.107Z,5.05
2016-11-19T00:07:44.072Z,4.99
2016-11-19T00:08:44.091Z,5.2
2016-11-19T00:09:44.085Z,5.23
2016-11-19T00:10:44.093Z,5.01
2016-11-19T00:11:44.251Z,5.23
2016-11-19T00:12:44.206Z,5.16
2016-11-19T00:13:44.288Z,5.12
2016-11-19T00:14:44.117Z,5.12
2016-11-19T00:15:44.095Z,5.38
2016-11-19T00:16:44.130Z,5.38
2016-11-19T00:17:44.110Z,5.13
2016-11-19T00:18:44.306Z,5.27
2016-11-19T00:19:44.111Z,5.22
2016-11-19T00:20:44.220Z,5.37
2016-11-19T00:21:44.210Z,5.12
2016-11-19T00:22:44.180Z,5.25
2016-11-19T00:23:44.099Z,5.1
2016-11-19T00:24:44.454Z,5.22
2016-11-19T00:25:44.141Z,5.13
2016-11-19T00:26:44.139Z,5.23
2016-11-19T00:27:44.102Z,5.27
2016-11-19T00:28:44.233Z,5.09
2016-11-19T00:29:44.131Z,5.22
2016-11-19T00:30:44.261Z,4.88
2016-11-19T00:31:44.110Z,5.25
2016-11-19T00:32:44.224Z,5.07
2016-11-19T00:33:44.146Z,5.13
2016-11-19T00:34:44.134Z,4.94
2016-11-19T00:35:44.213Z,5.04
2016-11-19T00:36:44.128Z,4.98
2016-11-19T00:37:44.274Z,5.04
2016-11-19T00:38:44.112Z,4.98
2016-11-19T00:39:44.165Z,4.72
2016-11-19T00:40:44.095Z,4.88
2016-11-19T00:41:44.165Z,4.69
2016-11-19T00:42:44.084Z,4.64
2016-11-19T00:43:44.100Z,4.5
2016-11-19T00:44:44.082Z,4.61
2016-11-19T00:45:44.102Z,4.72
2016-11-19T00:46:44.122Z,4.43
2016-11-19T00:47:44.119Z,4.44
2016-11-19T00:48:44.103Z,4.52
2016-11-19T00:49:44.298Z,4.4
2016-11-19T00:50:44.098Z,4.43
2016-11-19T00:51:44.179Z,4.36
2016-11-19T00:52:44.116Z,4.46
2016-11-19T00:53:44.111Z,4.33
2016-11-19T00:54:44.119Z,4.44
2016-11-19T00:55:44.115Z,4.33
2016-11-19T00:56:44.127Z,4.37
2016-11-19T00:57:44.199Z,4.28
2016-11-19T00:58:44.097Z,4.25
2016-11-19T00:59:44.215Z,4.46
2016-11-19T01:00:44.134Z,4.16
2016-11-19T01:01:44.145Z,4.24
2016-11-19T01:02:44.152Z,4.22
2016-11-19T01:03:44.160Z,4.22
2016-11-19T01:04:44.150Z,4.15
2016-11-19T01:05:44.165Z,4.22
2016-11-19T01:06:44.219Z,4.1
2016-11-19T01:07:44.171Z,4.12
2016-11-19T01:08:44.129Z,4.03
2016-11-19T01:09:44.132Z,4.03
2016-11-19T01:10:44.115Z,4.22
2016-11-19T01:11:44.215Z,4.08
2016-11-19T01:12:44.121Z,4.12
2016-11-19T01:13:44.109Z,4.03
2016-11-19T01:14:44.109Z,4.01
2016-11-19T01:15:44.190Z,4
2016-11-19T01:16:44.149Z,4.08
2016-11-19T01:17:44.130Z,3.97
2016-11-19T01:18:44.165Z,3.82
2016-11-19T01:19:44.200Z,4.04
2016-11-19T01:20:44.194Z,4.04
2016-11-19T01:21:44.126Z,4.03
2016-11-19T01:22:44.119Z,3.94
2016-11-19T01:23:44.156Z,3.97
2016-11-19T01:24:44.132Z,3.92
2016-11-19T01:25:44.108Z,3.8
2016-11-19T01:26:44.144Z,3.97
2016-11-19T01:27:44.168Z,4.01
2016-11-19T01:28:44.115Z,3.92
2016-11-19T01:29:44.223Z,3.98
2016-11-19T01:30:44.167Z,3.8
2016-11-19T01:31:44.197Z,4.01
2016-11-19T01:32:44.155Z,3.88
2016-11-19T01:33:44.181Z,3.83
2016-11-19T01:34:44.150Z,3.9
2016-11-19T01:35:44.151Z,3.88
2016-11-19T01:36:44.155Z,3.79
2016-11-19T01:37:44.138Z,3.76
2016-11-19T01:38:44.233Z,3.9
2016-11-19T01:39:44.152Z,3.78
2016-11-19T01:40:44.155Z,3.85
2016-11-19T01:41:44.167Z,3.76
2016-11-19T01:42:44.152Z,3.71
2016-11-19T01:43:44.123Z,3.83
2016-11-19T01:44:44.138Z,3.8
2016-11-19T01:45:44.147Z,3.76
2016-11-19T01:46:44.162Z,3.82
2016-11-19T01:47:44.219Z,3.7
2016-11-19T01:48:44.157Z,3.76
2016-11-19T01:49:44.163Z,3.78
2016-11-19T01:50:44.184Z,3.71
2016-11-19T01:51:44.203Z,3.68
2016-11-19T01:52:44.181Z,3.85
2016-11-19T01:53:44.149Z,3.75
2016-11-19T01:54:44.171Z,3.67
2016-11-19T01:55:44.217Z,3.68
2016-11-19T01:56:44.232Z,3.83
2016-11-19T01:57:44.171Z,3.76
2016-11-19T01:58:44.260Z,3.67
2016-11-19T01:59:44.145Z,3.62
2016-11-19T02:00:44.219Z,3.75
2016-11-19T02:01:44.174Z,3.65
2016-11-19T02:02:44.160Z,3.58
2016-11-19T02:03:44.160Z,3.68
2016-11-19T02:04:44.143Z,3.65
2016-11-19T02:05:44.245Z,3.6
2016-11-19T02:06:44.166Z,3.58
2016-11-19T02:07:44.172Z,3.52
2016-11-19T02:08:44.148Z,3.53
2016-11-19T02:09:44.160Z,3.62
2016-11-19T02:10:44.161Z,3.53
2016-11-19T02:11:44.189Z,3.57
2016-11-19T02:12:44.177Z,3.6
2016-11-19T02:13:44.176Z,3.58
2016-11-19T02:14:44.248Z,3.6
2016-11-19T02:15:44.167Z,3.64
2016-11-19T02:16:44.154Z,3.64
2016-11-19T02:17:44.161Z,3.62
2016-11-19T02:18:44.167Z,3.68
2016-11-19T02:19:44.162Z,3.62
2016-11-19T02:20:44.145Z,3.65
2016-11-19T02:21:44.220Z,3.62
2016-11-19T02:22:44.145Z,3.68
2016-11-19T02:23:44.162Z,3.76
2016-11-19T02:24:44.159Z,3.7
2016-11-19T02:25:44.161Z,3.76
2016-11-19T02:26:44.186Z,3.64
2016-11-19T02:27:44.161Z,3.76
2016-11-19T02:28:44.198Z,3.76
2016-11-19T02:29:44.183Z,3.89
2016-11-19T02:30:44.183Z,3.85
2016-11-19T02:31:44.188Z,3.86
2016-11-19T02:32:44.158Z,3.79
2016-11-19T02:33:44.246Z,3.86
2016-11-19T02:34:44.172Z,3.97
2016-11-19T02:35:44.213Z,3.89
2016-11-19T02:36:44.324Z,3.98
2016-11-19T02:37:44.195Z,3.88
2016-11-19T02:38:44.164Z,4.03
2016-11-19T02:39:44.606Z,3.96
2016-11-19T02:40:44.164Z,3.94
2016-11-19T02:41:44.193Z,3.97
2016-11-19T02:42:44.353Z,4.03
2016-11-19T02:43:44.174Z,4.04
2016-11-19T02:44:44.177Z,3.89
2016-11-19T02:45:44.190Z,4
2016-11-19T02:46:44.193Z,3.97
2016-11-19T02:47:44.443Z,4.01
2016-11-19T02:48:44.338Z,4.07
2016-11-19T02:49:44.190Z,3.94
2016-11-19T02:50:44.175Z,4.03
2016-11-19T02:51:44.197Z,4.1
2016-11-19T02:52:44.176Z,4.08
2016-11-19T02:53:44.197Z,4.16
2016-11-19T02:54:44.291Z,4.12
2016-11-19T02:55:44.214Z,4.08
2016-11-19T02:56:44.220Z,4.08
2016-11-19T02:57:44.198Z,4.03
2016-11-19T02:58:44.173Z,4.22
2016-11-19T02:59:44.183Z,4.18
2016-11-19T03:00:44.181Z,4.03
2016-11-19T03:01:44.202Z,4.03
2016-11-19T03:02:44.175Z,4.26
2016-11-19T03:03:44.202Z,4.12
2016-11-19T03:04:44.201Z,4.12
2016-11-19T03:05:44.445Z,4.08
2016-11-19T03:06:44.316Z,4.18
2016-11-19T03:07:44.213Z,4.1
2016-11-19T03:08:44.203Z,4.22
2016-11-19T03:09:44.213Z,4.15
2016-11-19T03:10:44.199Z,4.22
2016-11-19T03:11:44.255Z,4.33
2016-11-19T03:12:44.242Z,4.36
2016-11-19T03:13:44.234Z,4.42
2016-11-19T03:14:44.224Z,4.42
2016-11-19T03:15:44.226Z,4.59
2016-11-19T03:16:44.450Z,4.54
2016-11-19T03:17:44.235Z,4.67
2016-11-19T03:18:44.236Z,4.62
2016-11-19T03:19:44.236Z,4.76
2016-11-19T03:20:44.243Z,4.62
2016-11-19T03:21:44.277Z,4.73
2016-11-19T03:22:44.274Z,4.84
2016-11-19T03:23:44.395Z,4.8
2016-11-19T03:24:44.234Z,4.83
2016-11-19T03:25:44.229Z,4.7
2016-11-19T03:26:44.467Z,4.7
2016-11-19T03:27:44.246Z,4.8
2016-11-19T03:28:44.236Z,4.69
2016-11-19T03:29:44.271Z,4.91
2016-11-19T03:30:44.239Z,4.75
2016-11-19T03:31:44.253Z,4.99
2016-11-19T03:32:44.221Z,4.69
2016-11-19T03:33:44.217Z,4.76
2016-11-19T03:34:44.239Z,4.84
2016-11-19T03:35:44.236Z,4.64
2016-11-19T03:36:44.242Z,4.77
2016-11-19T03:37:44.234Z,4.79
2016-11-19T03:38:44.242Z,4.75
2016-11-19T03:39:44.255Z,4.64
2016-11-19T03:40:44.252Z,4.84
2016-11-19T03:41:44.245Z,4.67
2016-11-19T03:42:44.270Z,4.72
2016-11-19T03:43:44.398Z,4.64
2016-11-19T03:44:44.437Z,4.69
2016-11-19T03:45:44.233Z,4.58
2016-11-19T03:46:44.248Z,4.57
2016-11-19T03:47:44.244Z,4.64
2016-11-19T03:48:44.249Z,4.58
2016-11-19T03:49:44.242Z,4.61
2016-11-19T03:50:44.226Z,4.65
2016-11-19T03:51:44.376Z,4.62
2016-11-19T03:52:44.218Z,4.58
2016-11-19T03:53:44.243Z,4.47
2016-11-19T03:54:44.229Z,4.72
2016-11-19T03:55:44.226Z,4.57
2016-11-19T03:56:44.423Z,4.58
2016-11-19T03:57:44.236Z,4.54
2016-11-19T03:58:44.514Z,4.57
2016-11-19T03:59:44.454Z,4.65
2016-11-19T04:00:44.415Z,4.57
2016-11-19T04:01:44.332Z,4.37
2016-11-19T04:02:44.229Z,4.44
2016-11-19T04:03:44.319Z,4.44
2016-11-19T04:04:44.332Z,4.47
2016-11-19T04:05:44.360Z,4.44
2016-11-19T04:06:44.236Z,4.58
2016-11-19T04:07:45.093Z,4.54
2016-11-19T04:08:44.822Z,4.55
2016-11-19T04:09:44.241Z,4.54
2016-11-19T04:10:44.275Z,4.46
2016-11-19T04:11:44.393Z,4.43
2016-11-19T04:12:44.292Z,4.51
2016-11-19T04:13:44.313Z,4.51
2016-11-19T04:14:44.250Z,4.44
2016-11-19T04:15:44.242Z,4.5
2016-11-19T04:16:44.284Z,4.44
2016-11-19T04:17:44.405Z,4.55
2016-11-19T04:18:44.318Z,4.37
2016-11-19T04:19:44.279Z,4.44
2016-11-19T04:20:44.330Z,4.47
2016-11-19T04:21:44.251Z,4.46
2016-11-19T04:22:44.297Z,4.67
2016-11-19T04:23:44.346Z,4.37
2016-11-19T04:24:44.274Z,4.47
2016-11-19T04:25:44.393Z,4.29
2016-11-19T04:26:44.319Z,4.58
2016-11-19T04:27:44.291Z,4.4
2016-11-19T04:28:45.196Z,4.52
2016-11-19T04:29:44.274Z,4.46
2016-11-19T04:30:44.272Z,4.46
2016-11-19T04:31:44.301Z,4.46
2016-11-19T04:32:44.320Z,4.4
2016-11-19T04:33:44.300Z,4.32
2016-11-19T04:34:44.320Z,4.43
2016-11-19T04:35:44.267Z,4.36
2016-11-19T04:36:44.320Z,4.4
2016-11-19T04:37:44.329Z,4.57
2016-11-19T04:38:44.304Z,4.42
2016-11-19T04:39:44.275Z,4.37
2016-11-19T04:40:44.301Z,4.29
2016-11-19T04:41:44.316Z,4.42
2016-11-19T04:42:44.299Z,4.39
2016-11-19T04:43:44.267Z,4.33
2016-11-19T04:44:44.295Z,4.42
2016-11-19T04:45:44.260Z,4.44
2016-11-19T04:46:44.262Z,4.28
2016-11-19T04:47:44.614Z,4.33
2016-11-19T04:48:44.290Z,4.33
2016-11-19T04:49:44.282Z,4.1
2016-11-19T04:50:44.266Z,4.43
2016-11-19T04:51:44.295Z,4.22
2016-11-19T04:52:44.305Z,4.28
2016-11-19T04:53:44.283Z,4.34
2016-11-19T04:54:44.359Z,4.25
2016-11-19T04:55:44.291Z,4.24
2016-11-19T04:56:44.295Z,4.22
2016-11-19T04:57:44.322Z,4.25
2016-11-19T04:58:44.272Z,4.18
2016-11-19T04:59:44.269Z,4.26
2016-11-19T05:00:44.322Z,4.14
2016-11-19T05:01:44.276Z,4.34
2016-11-19T05:02:44.440Z,4.22
2016-11-19T05:03:44.263Z,4.37
2016-11-19T05:04:44.298Z,4.28
2016-11-19T05:05:44.304Z,4.29
2016-11-19T05:06:44.266Z,4.25
2016-11-19T05:07:44.344Z,4.44
2016-11-19T05:08:44.297Z,4.36
2016-11-19T05:09:44.317Z,4.42
2016-11-19T05:10:44.293Z,4.5
2016-11-19T05:11:44.276Z,4.42
2016-11-19T05:12:44.318Z,4.46
2016-11-19T05:13:44.320Z,4.42
2016-11-19T05:14:44.286Z,4.39
2016-11-19T05:15:44.296Z,4.46
2016-11-19T05:16:44.283Z,4.55
2016-11-19T05:17:44.925Z,4.52
2016-11-19T05:18:44.316Z,4.62
2016-11-19T05:19:44.307Z,4.58
2016-11-19T05:20:44.313Z,4.59
2016-11-19T05:21:44.317Z,4.59
2016-11-19T05:22:44.318Z,4.69
2016-11-19T05:23:44.334Z,4.75
2016-11-19T05:24:44.313Z,4.58
2016-11-19T05:25:44.308Z,4.86
2016-11-19T05:26:44.304Z,4.84
2016-11-19T05:27:44.310Z,4.77
2016-11-19T05:28:44.317Z,5.01
2016-11-19T05:29:44.350Z,4.92
2016-11-19T05:30:44.308Z,4.94
2016-11-19T05:31:44.306Z,5.13
2016-11-19T05:32:44.335Z,5.19
2016-11-19T05:33:44.337Z,5.19
2016-11-19T05:34:44.336Z,5.2
2016-11-19T05:35:44.330Z,5.19
2016-11-19T05:36:44.328Z,5.17
2016-11-19T05:37:44.320Z,5.22
2016-11-19T05:38:44.388Z,5.28
2016-11-19T05:39:44.341Z,5.27
2016-11-19T05:40:44.324Z,5.52
2016-11-19T05:41:44.330Z,5.53
2016-11-19T05:42:44.336Z,5.41
2016-11-19T05:43:44.353Z,5.45
2016-11-19T05:44:44.324Z,5.4
2016-11-19T05:45:44.312Z,5.4
2016-11-19T05:46:44.337Z,5.38
2016-11-19T05:47:44.328Z,5.43
2016-11-19T05:48:44.331Z,5.41
2016-11-19T05:49:44.362Z,5.3
2016-11-19T05:50:44.327Z,5.37
2016-11-19T05:51:44.340Z,5.5
2016-11-19T05:52:44.338Z,5.4
2016-11-19T05:53:44.337Z,5.49
2016-11-19T05:54:44.324Z,5.4
2016-11-19T05:55:44.330Z,5.19
2016-11-19T05:56:44.345Z,5.63
2016-11-19T05:57:44.339Z,5.57
2016-11-19T05:58:44.333Z,5.45
2016-11-19T05:59:44.326Z,5.63
2016-11-19T06:00:44.292Z,5.48
2016-11-19T06:01:44.327Z,5.56
2016-11-19T06:02:44.319Z,5.55
2016-11-19T06:03:44.308Z,5.48
2016-11-19T06:04:44.368Z,5.59
2016-11-19T06:05:44.332Z,5.6
2016-11-19T06:06:44.317Z,5.63
2016-11-19T06:07:44.321Z,5.67
2016-11-19T06:08:44.329Z,5.68
2016-11-19T06:09:44.338Z,5.82
2016-11-19T06:10:44.342Z,5.77
2016-11-19T06:11:44.333Z,5.88
2016-11-19T06:12:44.338Z,5.71
2016-11-19T06:13:44.492Z,5.77
2016-11-19T06:14:44.488Z,5.82
2016-11-19T06:15:44.485Z,5.95
2016-11-19T06:16:44.423Z,5.86
2016-11-19T06:17:44.413Z,5.71
2016-11-19T06:18:44.437Z,5.83
2016-11-19T06:19:44.456Z,5.78
2016-11-19T06:20:45.011Z,5.83
2016-11-19T06:21:44.505Z,5.92
2016-11-19T06:22:45.060Z,5.96
2016-11-19T06:23:44.407Z,5.93
2016-11-19T06:24:44.417Z,5.88
2016-11-19T06:25:45.082Z,5.91
2016-11-19T06:26:44.479Z,5.78
2016-11-19T06:27:44.455Z,5.95
2016-11-19T06:28:44.407Z,5.91
2016-11-19T06:29:44.417Z,6
2016-11-19T06:30:44.407Z,5.85
2016-11-19T06:31:44.472Z,5.91
2016-11-19T06:32:45.063Z,5.86
2016-11-19T06:33:44.393Z,6
2016-11-19T06:34:44.496Z,5.88
2016-11-19T06:35:44.400Z,5.82
2016-11-19T06:36:44.374Z,6.1
2016-11-19T06:37:44.480Z,5.75
2016-11-19T06:38:44.376Z,5.86
2016-11-19T06:39:44.371Z,5.92
2016-11-19T06:40:44.345Z,5.89
2016-11-19T06:41:44.399Z,5.96
2016-11-19T06:42:44.340Z,5.92
2016-11-19T06:43:44.365Z,6.01
2016-11-19T06:44:44.359Z,5.88
2016-11-19T06:45:44.333Z,6.03
2016-11-19T06:46:44.361Z,5.91
2016-11-19T06:47:44.364Z,6.03
2016-11-19T06:48:44.410Z,6
2016-11-19T06:49:44.928Z,6.18
2016-11-19T06:50:44.405Z,6.03
2016-11-19T06:51:44.383Z,6.11
2016-11-19T06:52:44.363Z,6
2016-11-19T06:53:44.415Z,6.1
2016-11-19T06:54:44.386Z,6.14
2016-11-19T06:55:44.419Z,6.14
2016-11-19T06:56:44.392Z,6.03
2016-11-19T06:57:44.392Z,6.14
2016-11-19T06:58:44.370Z,6.06
2016-11-19T06:59:44.361Z,6.09
2016-11-19T07:00:44.370Z,6.11
2016-11-19T07:01:44.402Z,6.13
2016-11-19T07:02:44.383Z,6.22
2016-11-19T07:03:44.373Z,6.16
2016-11-19T07:04:44.390Z,6.26
2016-11-19T07:05:44.418Z,6.41
2016-11-19T07:06:44.395Z,6.3
2016-11-19T07:07:44.397Z,6.33
2016-11-19T07:08:44.358Z,6.26
2016-11-19T07:09:44.429Z,6.38
2016-11-19T07:10:44.431Z,6.43
2016-11-19T07:11:44.398Z,6.58
2016-11-19T07:12:44.413Z,6.32
2016-11-19T07:13:44.412Z,6.51
2016-11-19T07:14:44.418Z,6.59
2016-11-19T07:15:44.453Z,6.46
2016-11-19T07:16:44.461Z,6.54
2016-11-19T07:17:44.420Z,6.53
2016-11-19T07:18:44.387Z,6.59
2016-11-19T07:19:44.389Z,6.65
2016-11-19T07:20:44.408Z,6.53
2016-11-19T07:21:44.392Z,6.59
2016-11-19T07:22:44.392Z,6.63
2016-11-19T07:23:44.406Z,6.62
2016-11-19T07:24:44.431Z,6.65
2016-11-19T07:25:44.464Z,6.69
2016-11-19T07:26:44.402Z,6.69
2016-11-19T07:27:44.392Z,6.76
2016-11-19T07:28:44.418Z,6.65
2016-11-19T07:29:44.405Z,6.76
2016-11-19T07:30:44.365Z,6.8
2016-11-19T07:31:44.389Z,6.73
2016-11-19T07:32:44.385Z,6.73
2016-11-19T07:33:44.393Z,6.8
2016-11-19T07:34:44.381Z,6.9
2016-11-19T07:35:44.413Z,6.86
2016-11-19T07:36:44.424Z,6.79
2016-11-19T07:37:44.409Z,6.86
2016-11-19T07:38:44.431Z,6.8
2016-11-19T07:39:44.389Z,6.84
2016-11-19T07:40:44.414Z,6.95
2016-11-19T07:41:44.414Z,6.89
2016-11-19T07:42:51.475Z,6.9
2016-11-19T07:43:44.414Z,6.94
2016-11-19T07:44:44.429Z,7.04
2016-11-19T07:45:44.395Z,7.05
2016-11-19T07:46:44.397Z,6.95
2016-11-19T07:47:44.430Z,7.04
2016-11-19T07:48:44.401Z,6.98
2016-11-19T07:49:44.406Z,6.99
2016-11-19T07:50:44.483Z,7.08
2016-11-19T07:51:44.667Z,7.17
2016-11-19T07:52:44.403Z,7.09
2016-11-19T07:53:44.420Z,7.09
2016-11-19T07:54:44.395Z,7.2
2016-11-19T07:55:44.395Z,7.22
2016-11-19T07:56:44.402Z,7.19
2016-11-19T07:57:44.430Z,7.23
2016-11-19T07:58:44.383Z,7.22
2016-11-19T07:59:44.559Z,7.35
2016-11-19T08:00:44.509Z,7.13
2016-11-19T08:01:44.395Z,7.29
2016-11-19T08:02:44.420Z,7.19
2016-11-19T08:03:44.389Z,7.26
2016-11-19T08:04:44.422Z,7.23
2016-11-19T08:05:44.409Z,7.35
2016-11-19T08:06:44.419Z,7.23
2016-11-19T08:07:44.457Z,7.31
2016-11-19T08:08:44.395Z,7.47
2016-11-19T08:09:44.420Z,7.52
2016-11-19T08:10:44.454Z,7.38
2016-11-19T08:11:44.613Z,7.52
2016-11-19T08:12:44.521Z,7.56
2016-11-19T08:13:44.396Z,7.52
2016-11-19T08:14:44.418Z,7.56
2016-11-19T08:15:44.483Z,7.6
2016-11-19T08:16:44.442Z,7.59
2016-11-19T08:17:44.457Z,7.78
2016-11-19T08:18:44.444Z,7.66
2016-11-19T08:19:44.413Z,7.67
2016-11-19T08:20:44.415Z,7.69
2016-11-19T08:21:44.507Z,7.78
2016-11-19T08:22:44.445Z,7.66
2016-11-19T08:23:44.429Z,7.89
2016-11-19T08:24:44.450Z,7.89
2016-11-19T08:25:44.782Z,7.85
2016-11-19T08:26:44.418Z,7.96
2016-11-19T08:27:44.473Z,7.93
2016-11-19T08:28:44.452Z,7.99
2016-11-19T08:29:44.438Z,7.94
2016-11-19T08:30:44.466Z,7.81
2016-11-19T08:31:44.416Z,7.85
2016-11-19T08:32:44.473Z,7.84
2016-11-19T08:33:44.508Z,8.07
2016-11-19T08:34:44.428Z,7.89
2016-11-19T08:35:44.505Z,7.97
2016-11-19T08:36:44.447Z,7.89
2016-11-19T08:37:44.439Z,7.81
2016-11-19T08:38:44.437Z,7.92
2016-11-19T08:39:44.448Z,7.92
2016-11-19T08:40:44.456Z,7.99
2016-11-19T08:41:44.442Z,7.84
2016-11-19T08:42:44.452Z,7.94
2016-11-19T08:43:44.489Z,7.93
2016-11-19T08:44:44.454Z,7.87
2016-11-19T08:45:44.466Z,7.87
2016-11-19T08:46:44.412Z,7.9
2016-11-19T08:47:44.447Z,7.87
2016-11-19T08:48:44.489Z,7.94
2016-11-19T08:49:44.479Z,7.84
2016-11-19T08:50:44.454Z,7.85
2016-11-19T08:51:44.430Z,7.79
2016-11-19T08:52:44.466Z,7.82
2016-11-19T08:53:44.505Z,7.85
2016-11-19T08:54:44.434Z,7.74
2016-11-19T08:55:44.441Z,7.82
2016-11-19T08:56:44.444Z,7.82
2016-11-19T08:57:44.456Z,7.82
2016-11-19T08:58:47.724Z,7.85
2016-11-19T08:59:47.792Z,7.82
2016-11-19T09:00:44.452Z,7.81
2016-11-19T09:01:44.539Z,7.87
2016-11-19T09:02:44.451Z,7.84
2016-11-19T09:03:44.464Z,7.92
2016-11-19T09:04:44.455Z,7.87
2016-11-19T09:05:44.469Z,7.9
2016-11-19T09:06:44.457Z,7.89
2016-11-19T09:07:44.489Z,7.81
2016-11-19T09:08:44.506Z,7.81
2016-11-19T09:09:44.665Z,7.78
2016-11-19T09:10:44.467Z,7.92
2016-11-19T09:11:44.462Z,7.93
2016-11-19T09:12:44.446Z,7.89
2016-11-19T09:13:44.489Z,7.99
2016-11-19T09:14:44.454Z,7.78
2016-11-19T09:15:44.469Z,7.94
2016-11-19T09:16:44.458Z,7.81
2016-11-19T09:17:44.473Z,7.92
2016-11-19T09:18:44.571Z,7.93
2016-11-19T09:19:44.501Z,7.99
2016-11-19T09:20:52.081Z,8
2016-11-19T09:21:50.263Z,7.93
2016-11-19T09:22:51.116Z,8
2016-11-19T09:23:51.119Z,7.99
2016-11-19T09:24:50.987Z,8.04
2016-11-19T09:25:51.247Z,7.89
2016-11-19T09:26:51.051Z,7.97
2016-11-19T09:27:52.197Z,8.02
2016-11-19T09:28:51.227Z,8.03
2016-11-19T09:29:50.911Z,7.97
2016-11-19T09:30:51.444Z,7.99
2016-11-19T09:31:52.698Z,7.94
2016-11-19T09:32:52.221Z,8
2016-11-19T09:33:51.923Z,8.11
2016-11-19T09:34:51.716Z,8
2016-11-19T09:35:50.922Z,8
2016-11-19T09:36:52.020Z,8.15
2016-11-19T09:37:52.253Z,8.03
2016-11-19T09:38:52.362Z,8.15
2016-11-19T09:39:52.893Z,8.21
2016-11-19T09:40:51.783Z,8.18
2016-11-19T09:41:51.294Z,8.14
2016-11-19T09:42:50.884Z,8.26
2016-11-19T09:43:52.708Z,8.32
2016-11-19T09:44:50.538Z,8.3
2016-11-19T09:45:52.139Z,8.32
2016-11-19T09:46:51.309Z,8.4
2016-11-19T09:47:44.832Z,8.3
2016-11-19T09:48:44.522Z,8.36
2016-11-19T09:49:44.529Z,8.42
2016-11-19T09:50:44.502Z,8.36
2016-11-19T09:51:44.511Z,8.45
2016-11-19T09:52:44.503Z,8.35
2016-11-19T09:53:44.496Z,8.3
2016-11-19T09:54:44.479Z,8.2
2016-11-19T09:55:44.510Z,8.42
2016-11-19T09:56:44.483Z,8.37
2016-11-19T09:57:44.481Z,8.42
2016-11-19T09:58:45.160Z,8.33
2016-11-19T09:59:44.504Z,8.33
2016-11-19T10:00:44.531Z,8.45
2016-11-19T10:01:44.502Z,8.39
2016-11-19T10:02:44.529Z,8.37
2016-11-19T10:03:44.519Z,8.32
2016-11-19T10:04:44.524Z,8.28
2016-11-19T10:05:44.476Z,8.3
2016-11-19T10:06:44.581Z,8.29
2016-11-19T10:07:44.749Z,8.14
2016-11-19T10:08:44.468Z,8.18
2016-11-19T10:09:44.501Z,8.22
2016-11-19T10:10:45.524Z,8.29
2016-11-19T10:11:44.509Z,8.22
2016-11-19T10:12:44.992Z,8.35
2016-11-19T10:13:44.508Z,8.26
2016-11-19T10:14:44.535Z,8.32
2016-11-19T10:15:44.522Z,8.29
2016-11-19T10:16:44.532Z,8.37
2016-11-19T10:17:44.545Z,8.36
2016-11-19T10:18:46.503Z,8.25
2016-11-19T10:19:45.024Z,8.26
2016-11-19T10:20:44.538Z,8.25
2016-11-19T10:21:44.512Z,8.26
2016-11-19T10:22:44.650Z,8.3
2016-11-19T10:23:44.525Z,8.44
2016-11-19T10:24:44.495Z,8.36
2016-11-19T10:25:45.504Z,8.36
2016-11-19T10:26:44.502Z,8.28
2016-11-19T10:27:44.509Z,8.1
2016-11-19T10:28:45.652Z,8.18
2016-11-19T10:29:44.526Z,8.22
2016-11-19T10:30:44.589Z,8.12
2016-11-19T10:31:44.530Z,8.15
2016-11-19T10:32:44.547Z,8.1
2016-11-19T10:33:44.611Z,8.08
2016-11-19T10:34:44.953Z,8.03
2016-11-19T10:35:44.541Z,8.07
2016-11-19T10:36:44.529Z,8.04
2016-11-19T10:37:44.558Z,7.92
2016-11-19T10:38:44.531Z,7.87
2016-11-19T10:39:44.537Z,7.94
2016-11-19T10:40:44.867Z,7.93
2016-11-19T10:41:45.108Z,7.89
2016-11-19T10:42:44.557Z,7.87
2016-11-19T10:43:44.732Z,7.92
2016-11-19T10:44:45.113Z,7.9
2016-11-19T10:45:44.534Z,7.84
2016-11-19T10:46:44.586Z,7.78
2016-11-19T10:47:44.592Z,7.78
2016-11-19T10:48:44.564Z,7.78
2016-11-19T10:49:45.305Z,7.77
2016-11-19T10:50:45.468Z,7.85
2016-11-19T10:51:44.562Z,7.87
2016-11-19T10:52:44.556Z,7.84
2016-11-19T10:53:44.579Z,7.84
2016-11-19T10:54:44.571Z,7.72
2016-11-19T10:55:44.575Z,7.72
2016-11-19T10:56:44.639Z,7.71
2016-11-19T10:57:44.576Z,7.82
2016-11-19T10:58:44.584Z,7.84
2016-11-19T10:59:44.555Z,7.82
2016-11-19T11:00:44.582Z,7.79
2016-11-19T11:01:44.563Z,7.82
2016-11-19T11:02:44.678Z,7.87
2016-11-19T11:03:44.531Z,7.87
2016-11-19T11:04:44.540Z,7.82
2016-11-19T11:05:44.558Z,7.9
2016-11-19T11:06:44.548Z,8.04
2016-11-19T11:07:44.554Z,8.04
2016-11-19T11:08:44.546Z,8.03
2016-11-19T11:09:44.565Z,8.14
2016-11-19T11:10:44.535Z,8.11
2016-11-19T11:11:44.567Z,8
2016-11-19T11:12:44.538Z,8.15
2016-11-19T11:13:44.600Z,8.14
2016-11-19T11:14:44.530Z,8.08
2016-11-19T11:15:44.779Z,8.15
2016-11-19T11:16:44.570Z,8.1
2016-11-19T11:17:44.575Z,8.21
2016-11-19T11:18:44.578Z,8.22
2016-11-19T11:19:44.551Z,8.2
2016-11-19T11:20:44.542Z,8.35
2016-11-19T11:21:44.541Z,8.28
2016-11-19T11:22:44.542Z,8.42
2016-11-19T11:23:44.537Z,8.33
2016-11-19T11:24:44.564Z,8.33
2016-11-19T11:25:44.537Z,8.44
2016-11-19T11:26:44.555Z,8.37
2016-11-19T11:27:44.551Z,8.33
2016-11-19T11:28:44.563Z,8.3
2016-11-19T11:29:44.564Z,8.26
2016-11-19T11:30:44.596Z,8.28
2016-11-19T11:31:45.188Z,8.17
2016-11-19T11:32:45.065Z,8.18
2016-11-19T11:33:44.675Z,8.28
2016-11-19T11:34:44.543Z,8.25
2016-11-19T11:35:44.556Z,8.12
2016-11-19T11:36:44.906Z,8.14
2016-11-19T11:37:44.592Z,8.12
2016-11-19T11:38:44.541Z,8.22
2016-11-19T11:39:44.544Z,8
2016-11-19T11:40:44.566Z,8.14
2016-11-19T11:41:44.578Z,8.14
2016-11-19T11:42:44.586Z,8.22
2016-11-19T11:43:44.536Z,8.26
2016-11-19T11:44:44.555Z,8.2
2016-11-19T11:45:44.576Z,8.21
2016-11-19T11:46:44.547Z,8.18
2016-11-19T11:47:44.883Z,8.3
2016-11-19T11:48:45.575Z,8.26
2016-11-19T11:49:45.523Z,8.32
2016-11-19T11:50:44.576Z,8.25
2016-11-19T11:51:44.693Z,8.29
2016-11-19T11:52:44.871Z,8.42
2016-11-19T11:53:45.163Z,8.42
2016-11-19T11:54:44.550Z,8.47
2016-11-19T11:55:44.563Z,8.57
2016-11-19T11:56:44.585Z,8.55
2016-11-19T11:57:44.614Z,8.6
2016-11-19T11:58:44.592Z,8.69
2016-11-19T11:59:44.652Z,8.65
2016-11-19T12:00:44.613Z,8.69
2016-11-19T12:01:44.745Z,8.78
2016-11-19T12:02:44.616Z,8.78
2016-11-19T12:03:44.642Z,8.81
2016-11-19T12:04:44.582Z,8.84
2016-11-19T12:05:44.578Z,8.75
2016-11-19T12:06:44.933Z,8.76
2016-11-19T12:07:44.617Z,8.72
2016-11-19T12:08:44.619Z,8.76
2016-11-19T12:09:44.600Z,8.76
2016-11-19T12:10:44.590Z,8.83
2016-11-19T12:11:45.119Z,8.76
2016-11-19T12:12:44.648Z,8.76
2016-11-19T12:13:45.283Z,8.68
2016-11-19T12:14:44.778Z,8.75
2016-11-19T12:15:44.773Z,8.69
2016-11-19T12:16:44.808Z,8.68
2016-11-19T12:17:58.530Z,8.71
2016-11-19T12:18:44.709Z,8.68
2016-11-19T12:19:44.742Z,8.6
2016-11-19T12:20:44.603Z,8.58
2016-11-19T12:21:44.741Z,8.54
2016-11-19T12:22:44.870Z,8.62
2016-11-19T12:23:44.703Z,8.58
2016-11-19T12:24:44.582Z,8.53
2016-11-19T12:25:44.728Z,8.58
2016-11-19T12:26:45.261Z,8.53
2016-11-19T12:27:45.618Z,8.55
2016-11-19T12:28:44.805Z,8.6
2016-11-19T12:29:44.600Z,8.5
2016-11-19T12:30:44.848Z,8.44
2016-11-19T12:31:44.610Z,8.55
2016-11-19T12:32:44.636Z,8.5
2016-11-19T12:33:45.067Z,8.57
2016-11-19T12:34:44.614Z,8.54
2016-11-19T12:35:44.639Z,8.54
2016-11-19T12:36:44.703Z,8.39
2016-11-19T12:37:44.752Z,8.42
2016-11-19T12:38:44.728Z,8.6
2016-11-19T12:39:44.613Z,8.44
2016-11-19T12:40:44.621Z,8.48
2016-11-19T12:41:44.951Z,8.36
2016-11-19T12:42:45.104Z,8.45
2016-11-19T12:43:44.704Z,8.4
2016-11-19T12:44:45.290Z,8.28
2016-11-19T12:45:44.748Z,8.42
2016-11-19T12:46:44.671Z,8.5
2016-11-19T12:47:44.945Z,8.47
2016-11-19T12:48:44.712Z,8.45
2016-11-19T12:49:47.699Z,8.51
2016-11-19T12:50:44.611Z,8.53
2016-11-19T12:51:44.632Z,8.6
2016-11-19T12:52:44.613Z,8.63
2016-11-19T12:53:44.751Z,8.68
2016-11-19T12:54:44.620Z,8.68
2016-11-19T12:55:44.639Z,8.72
2016-11-19T12:56:44.609Z,8.72
2016-11-19T12:57:44.619Z,8.73
2016-11-19T12:58:44.626Z,8.81
2016-11-19T12:59:44.613Z,8.78
2016-11-19T13:00:44.612Z,8.83
2016-11-19T13:01:44.609Z,8.71
2016-11-19T13:02:44.651Z,8.53
2016-11-19T13:03:44.661Z,8.65
2016-11-19T13:04:44.615Z,8.57
2016-11-19T13:05:44.659Z,8.62
2016-11-19T13:06:44.608Z,8.51
2016-11-19T13:07:44.717Z,8.55
2016-11-19T13:08:44.640Z,8.33
2016-11-19T13:09:44.644Z,8.44
2016-11-19T13:10:44.616Z,8.54
2016-11-19T13:11:44.619Z,8.47
2016-11-19T13:12:44.634Z,8.35
2016-11-19T13:13:44.638Z,8.42
2016-11-19T13:14:44.614Z,8.39
2016-11-19T13:15:45.271Z,8.39
2016-11-19T13:16:45.110Z,8.39
2016-11-19T13:17:45.634Z,8.42
2016-11-19T13:18:44.689Z,8.3
2016-11-19T13:19:44.681Z,8.37
2016-11-19T13:20:44.638Z,8.3
2016-11-19T13:21:44.711Z,8.33
2016-11-19T13:22:44.650Z,8.32